createdAt,value
2018-06-02T00:00:28.750Z,13.40
2018-06-02T00:04:32.268Z,13.30
2018-06-02T00:08:35.063Z,13.30
2018-06-02T00:12:37.839Z,13.30
2018-06-02T00:16:40.666Z,13.30
2018-06-02T00:20:44.155Z,13.20
2018-06-02T00:24:46.978Z,13.20
2018-06-02T00:28:50.740Z,13.00
2018-06-02T00:32:53.464Z,13.00
2018-06-02T00:36:56.181Z,13.00
2018-06-02T00:40:58.956Z,13.00
2018-06-02T00:45:01.655Z,12.90
2018-06-02T00:49:04.381Z,12.90
2018-06-02T00:53:07.907Z,13.00
2018-06-02T00:57:11.417Z,13.00
2018-06-02T01:01:14.910Z,12.90
2018-06-02T01:05:17.743Z,12.80
2018-06-02T01:09:20.478Z,12.90
2018-06-02T01:13:23.232Z,12.90
2018-06-02T01:17:25.966Z,13.00
2018-06-02T01:21:28.710Z,12.80
2018-06-02T01:25:32.322Z,12.80
2018-06-02T01:29:35.789Z,12.80
2018-06-02T01:33:38.513Z,12.80
2018-06-02T01:37:41.241Z,12.70
2018-06-02T01:41:44.724Z,12.70
2018-06-02T01:45:47.469Z,12.60
2018-06-02T01:49:50.259Z,12.70
2018-06-02T01:53:52.961Z,12.70
2018-06-02T01:57:55.948Z,12.60
2018-06-02T02:01:59.445Z,12.50
2018-06-02T02:06:02.998Z,12.60
2018-06-02T02:10:05.838Z,12.60
2018-06-02T02:14:08.579Z,12.50
2018-06-02T02:18:12.181Z,12.60
2018-06-02T02:22:14.935Z,12.60
2018-06-02T02:26:18.470Z,12.70
2018-06-02T02:30:21.295Z,12.70
2018-06-02T02:34:24.777Z,12.70
2018-06-02T02:38:27.702Z,12.70
2018-06-02T02:42:31.197Z,12.60
2018-06-02T02:46:33.953Z,12.60
2018-06-02T02:50:36.694Z,12.50
2018-06-02T02:54:39.840Z,12.50
2018-06-02T02:58:42.580Z,12.40
2018-06-02T03:02:45.328Z,12.50
2018-06-02T03:06:48.165Z,12.40
2018-06-02T03:10:50.863Z,12.40
2018-06-02T03:14:53.830Z,12.40
2018-06-02T03:18:56.679Z,12.30
2018-06-02T03:22:59.405Z,12.30
2018-06-02T03:27:02.918Z,12.40
2018-06-02T03:31:06.409Z,12.40
2018-06-02T03:35:09.934Z,12.30
2018-06-02T03:39:12.681Z,12.30
2018-06-02T03:43:15.418Z,12.40
2018-06-02T03:47:18.145Z,12.50
2018-06-02T03:51:21.702Z,12.70
2018-06-02T03:55:24.411Z,12.70
2018-06-02T03:59:28.000Z,12.70
2018-06-02T04:03:30.789Z,12.70
2018-06-02T04:07:33.520Z,12.80
2018-06-02T04:11:36.317Z,12.90
2018-06-02T04:15:39.015Z,13.10
2018-06-02T04:19:42.615Z,13.00
2018-06-02T04:23:45.357Z,13.00
2018-06-02T04:27:48.173Z,13.00
2018-06-02T04:31:51.670Z,13.30
2018-06-02T04:35:55.545Z,13.30
2018-06-02T04:39:58.337Z,13.40
2018-06-02T04:44:01.131Z,13.50
2018-06-02T04:48:03.915Z,13.70
2018-06-02T04:52:06.856Z,13.80
2018-06-02T04:56:09.629Z,13.90
2018-06-02T05:00:12.423Z,14.00
2018-06-02T05:04:15.191Z,14.10
2018-06-02T05:08:17.994Z,14.20
2018-06-02T05:12:20.805Z,14.40
2018-06-02T05:16:24.277Z,14.90
2018-06-02T05:20:27.228Z,14.90
2018-06-02T05:24:29.973Z,15.30
2018-06-02T05:28:33.033Z,15.60
2018-06-02T05:32:35.765Z,16.00
2018-06-02T05:36:38.505Z,16.30
2018-06-02T05:40:42.063Z,16.80
2018-06-02T05:44:45.590Z,17.00
2018-06-02T05:48:48.325Z,16.90
2018-06-02T05:52:51.820Z,17.40
2018-06-02T05:56:54.634Z,17.40
2018-06-02T06:00:58.139Z,17.70
2018-06-02T06:05:00.873Z,17.70
2018-06-02T06:09:04.450Z,17.70
2018-06-02T06:13:10.276Z,17.70
2018-06-02T06:17:13.241Z,17.90
2018-06-02T06:21:16.875Z,18.00
2018-06-02T06:25:33.343Z,18.00
2018-06-02T06:29:36.211Z,18.10
2018-06-02T06:33:39.010Z,18.30
2018-06-02T06:37:41.763Z,18.40
2018-06-02T06:41:46.439Z,19.30
2018-06-02T06:45:49.151Z,19.30
2018-06-02T06:49:52.008Z,19.90
2018-06-02T06:53:54.799Z,20.30
2018-06-02T06:57:57.565Z,20.70
2018-06-02T07:02:00.452Z,20.90
2018-06-02T07:06:03.187Z,21.00
2018-06-02T07:10:06.051Z,21.00
2018-06-02T07:14:08.803Z,20.90
2018-06-02T07:18:15.532Z,21.30
2018-06-02T07:22:18.292Z,22.00
2018-06-02T07:26:22.205Z,22.90
2018-06-02T07:30:25.140Z,23.20
2018-06-02T07:34:27.867Z,23.80
2018-06-02T07:38:30.614Z,24.00
2018-06-02T07:42:33.358Z,24.30
2018-06-02T07:46:36.176Z,24.20
2018-06-02T07:50:39.749Z,24.00
2018-06-02T07:54:42.608Z,24.00
2018-06-02T07:58:45.535Z,24.30
2018-06-02T08:02:48.357Z,24.20
2018-06-02T08:06:51.680Z,24.30
2018-06-02T08:10:54.428Z,24.00
2018-06-02T08:14:57.321Z,23.70
2018-06-02T08:19:01.111Z,23.50
2018-06-02T08:23:04.764Z,23.10
2018-06-02T08:27:07.543Z,23.00
2018-06-02T08:31:11.534Z,23.40
2018-06-02T08:35:14.276Z,23.30
2018-06-02T08:39:17.813Z,23.70
2018-06-02T08:43:21.521Z,24.50
2018-06-02T08:47:24.529Z,24.50
2018-06-02T08:51:27.293Z,25.70
2018-06-02T08:55:31.160Z,27.30
2018-06-02T08:59:33.876Z,27.90
2018-06-02T09:03:36.734Z,28.60
2018-06-02T09:07:39.638Z,29.00
2018-06-02T09:11:42.946Z,28.10
2018-06-02T09:15:45.785Z,28.60
2018-06-02T09:19:49.290Z,29.80
2018-06-02T09:23:52.009Z,29.80
2018-06-02T09:27:55.625Z,29.50
2018-06-02T09:31:58.461Z,29.50
2018-06-02T09:36:01.288Z,29.90
2018-06-02T09:40:04.134Z,29.60
2018-06-02T09:44:06.943Z,29.40
2018-06-02T09:48:09.643Z,28.80
2018-06-02T09:52:13.573Z,30.00
2018-06-02T09:56:16.322Z,30.10
2018-06-02T10:00:25.741Z,30.30
2018-06-02T10:04:28.478Z,30.50
2018-06-02T10:08:32.055Z,30.20
2018-06-02T10:12:34.761Z,30.20
2018-06-02T10:16:37.508Z,29.70
2018-06-02T10:20:40.257Z,30.10
2018-06-02T10:24:43.075Z,30.20
2018-06-02T10:28:45.810Z,30.90
2018-06-02T10:32:48.540Z,31.60
2018-06-02T10:36:51.299Z,30.60
2018-06-02T10:40:54.049Z,30.50
2018-06-02T10:44:56.892Z,30.10
2018-06-02T10:48:59.700Z,29.60
2018-06-02T10:53:02.533Z,30.30
2018-06-02T10:57:05.354Z,31.20
2018-06-02T11:01:08.148Z,31.40
2018-06-02T11:05:10.948Z,31.50
2018-06-02T11:09:13.795Z,31.20
2018-06-02T11:13:16.734Z,31.10
2018-06-02T11:17:19.653Z,31.10
2018-06-02T11:21:22.405Z,31.60
2018-06-02T11:25:25.145Z,30.30
2018-06-02T11:29:28.621Z,29.90
2018-06-02T11:33:31.610Z,29.90
2018-06-02T11:37:34.380Z,28.60
2018-06-02T11:41:37.997Z,27.80
2018-06-02T11:45:41.601Z,27.50
2018-06-02T11:49:44.401Z,27.50
2018-06-02T11:53:47.885Z,27.40
2018-06-02T11:57:50.682Z,27.30
2018-06-02T12:01:53.413Z,27.00
2018-06-02T12:05:56.120Z,27.50
2018-06-02T12:09:59.672Z,26.10
2018-06-02T12:14:02.406Z,26.00
2018-06-02T12:18:05.227Z,25.40
2018-06-02T12:22:08.732Z,22.80
2018-06-02T12:26:12.244Z,22.70
2018-06-02T12:30:15.030Z,22.70
2018-06-02T12:34:17.961Z,24.50
2018-06-02T12:38:21.549Z,27.50
2018-06-02T12:42:24.338Z,27.50
2018-06-02T12:46:27.069Z,27.60
2018-06-02T12:50:30.652Z,31.10
2018-06-02T12:54:34.230Z,33.40
2018-06-02T12:58:36.993Z,33.20
2018-06-02T13:02:40.553Z,32.50
2018-06-02T13:06:43.378Z,32.50
2018-06-02T13:10:46.177Z,31.60
2018-06-02T13:14:48.932Z,29.80
2018-06-02T13:18:51.659Z,28.00
2018-06-02T13:22:54.398Z,25.90
2018-06-02T13:26:57.915Z,24.60
2018-06-02T13:31:01.704Z,23.90
2018-06-02T13:35:04.634Z,23.90
2018-06-02T13:39:08.261Z,23.00
2018-06-02T13:43:11.881Z,23.50
2018-06-02T13:47:15.446Z,23.50
2018-06-02T13:51:18.215Z,23.50
2018-06-02T13:55:20.990Z,23.90
2018-06-02T13:59:23.809Z,24.40
2018-06-02T14:03:26.538Z,24.60
2018-06-02T14:07:29.412Z,24.60
2018-06-02T14:11:32.463Z,25.60
2018-06-02T14:15:36.223Z,26.10
2018-06-02T14:19:38.965Z,26.10
2018-06-02T14:23:41.673Z,26.10
2018-06-02T14:27:44.416Z,26.50
2018-06-02T14:31:47.145Z,26.40
2018-06-02T14:35:49.903Z,25.90
2018-06-02T14:39:52.695Z,25.90
2018-06-02T14:43:56.194Z,24.60
2018-06-02T14:47:58.931Z,24.50
2018-06-02T14:52:01.726Z,24.60
2018-06-02T14:56:04.475Z,24.50
2018-06-02T15:00:07.248Z,24.60
2018-06-02T15:04:11.001Z,26.30
2018-06-02T15:08:13.774Z,26.30
2018-06-02T15:12:16.636Z,26.80
2018-06-02T15:16:20.891Z,26.80
2018-06-02T15:20:26.246Z,26.70
2018-06-02T15:24:29.678Z,25.90
2018-06-02T15:28:32.610Z,25.90
2018-06-02T15:32:35.469Z,26.30
2018-06-02T15:36:38.654Z,26.40
2018-06-02T15:40:41.595Z,26.80
2018-06-02T15:44:44.379Z,26.50
2018-06-02T15:48:48.102Z,26.30
2018-06-02T15:52:51.038Z,26.30
2018-06-02T15:56:54.540Z,27.40
2018-06-02T16:00:57.553Z,27.30
2018-06-02T16:05:01.316Z,27.70
2018-06-02T16:09:04.473Z,27.70
2018-06-02T16:13:07.524Z,27.60
2018-06-02T16:17:10.847Z,27.00
2018-06-02T16:21:14.832Z,26.90
2018-06-02T16:25:17.877Z,26.10
2018-06-02T16:29:21.531Z,26.00
2018-06-02T16:33:24.938Z,26.00
2018-06-02T16:37:28.592Z,25.80
2018-06-02T16:41:31.838Z,25.70
2018-06-02T16:45:34.675Z,25.70
2018-06-02T16:49:38.240Z,25.30
2018-06-02T16:53:41.131Z,25.30
2018-06-02T16:57:44.749Z,24.90
2018-06-02T17:01:47.886Z,24.80
2018-06-02T17:05:50.616Z,24.20
2018-06-02T17:09:54.115Z,23.90
2018-06-02T17:13:56.992Z,23.80
2018-06-02T17:17:59.784Z,23.70
2018-06-02T17:22:02.602Z,22.90
2018-06-02T17:26:05.327Z,22.70
2018-06-02T17:30:08.806Z,22.10
2018-06-02T17:34:11.757Z,22.00
2018-06-02T17:38:14.465Z,21.90
2018-06-02T17:42:17.283Z,21.60
2018-06-02T17:46:20.837Z,21.50
2018-06-02T17:50:23.669Z,21.40
2018-06-02T17:54:26.421Z,21.30
2018-06-02T17:58:29.160Z,21.10
2018-06-02T18:02:32.205Z,20.90
2018-06-02T18:06:34.962Z,20.70
2018-06-02T18:10:37.850Z,20.60
2018-06-02T18:14:41.321Z,20.70
2018-06-02T18:18:44.051Z,20.60
2018-06-02T18:22:47.589Z,20.20
2018-06-02T18:26:50.435Z,20.20
2018-06-02T18:30:54.800Z,19.90
2018-06-02T18:34:58.386Z,19.90
2018-06-02T18:39:01.212Z,19.90
2018-06-02T18:43:04.756Z,19.80
2018-06-02T18:47:07.504Z,19.80
2018-06-02T18:51:11.474Z,20.00
2018-06-02T18:55:14.208Z,20.10
2018-06-02T18:59:16.961Z,19.90
2018-06-02T19:03:19.675Z,19.50
2018-06-02T19:07:22.654Z,19.00
2018-06-02T19:11:25.505Z,18.30
2018-06-02T19:15:29.502Z,17.10
2018-06-02T19:19:32.343Z,17.10
2018-06-02T19:23:36.348Z,16.40
2018-06-02T19:32:30.126Z,16.30
2018-06-02T19:36:34.514Z,16.20
2018-06-02T19:40:39.275Z,16.30
2018-06-02T19:44:43.743Z,16.40
2018-06-02T19:48:48.557Z,16.40
2018-06-02T19:52:52.956Z,16.40
2018-06-02T19:56:57.226Z,16.60
2018-06-02T20:01:01.675Z,16.50
2018-06-02T20:05:05.998Z,16.60
2018-06-02T20:09:11.346Z,16.60
2018-06-02T20:13:15.717Z,16.60
2018-06-02T20:17:19.968Z,16.50
2018-06-02T20:29:31.705Z,16.40
2018-06-02T20:33:36.092Z,16.30
2018-06-02T20:37:40.528Z,16.30
2018-06-02T20:41:44.794Z,16.20
2018-06-02T20:45:49.240Z,16.10
2018-06-02T20:49:53.521Z,16.00
2018-06-02T20:53:57.842Z,15.90
2018-06-02T20:58:02.147Z,15.90
2018-06-02T21:02:06.458Z,15.90
2018-06-02T21:06:10.921Z,15.90
2018-06-02T21:10:15.225Z,15.80
2018-06-02T21:14:19.566Z,15.70
2018-06-02T21:18:23.819Z,15.80
2018-06-02T21:22:28.199Z,15.60
2018-06-02T21:26:32.453Z,15.70
2018-06-02T21:30:36.773Z,15.60
2018-06-02T21:34:41.024Z,15.60
2018-06-02T21:38:45.296Z,15.60
2018-06-02T21:50:57.102Z,15.70
2018-06-02T21:55:01.379Z,15.60
2018-06-02T21:59:05.833Z,15.30
2018-06-02T22:03:10.255Z,15.30
2018-06-02T22:11:18.644Z,15.20
2018-06-02T22:15:23.117Z,15.20
2018-06-02T22:19:27.655Z,15.20
2018-06-02T22:23:32.190Z,15.10
2018-06-02T22:27:36.425Z,15.00
2018-06-02T22:31:40.890Z,15.10
2018-06-02T22:35:45.236Z,15.10
2018-06-02T22:43:53.338Z,15.00
2018-06-02T22:47:58.779Z,15.00
2018-06-02T22:52:02.993Z,15.00
2018-06-02T22:56:07.629Z,15.00
2018-06-02T23:00:14.210Z,15.10
2018-06-02T23:04:18.871Z,15.20
2018-06-02T23:08:23.289Z,15.10
2018-06-02T23:12:27.710Z,15.20
2018-06-02T23:16:31.988Z,15.10
2018-06-02T23:20:36.334Z,15.10
2018-06-02T23:24:40.576Z,15.10
2018-06-02T23:28:44.847Z,15.20
2018-06-02T23:32:49.197Z,15.20
2018-06-02T23:36:53.454Z,15.20
2018-06-02T23:40:57.789Z,15.30
2018-06-02T23:45:02.343Z,15.30
2018-06-02T23:49:08.069Z,15.40
2018-06-02T23:53:13.950Z,15.30
2018-06-02T23:57:19.019Z,15.30
